sensor_id;sensor_type;location;lat;lon;timestamp;P1;durP1;ratioP1;P2;durP2;ratioP2
1925;SDS011;964;42.606;23.588;2022-07-23T00:00:19;8.57;;;5.50;;
1925;SDS011;964;42.606;23.588;2022-07-23T00:02:47;8.10;;;5.20;;
1925;SDS011;964;42.606;23.588;2022-07-23T00:05:14;6.43;;;4.97;;
1925;SDS011;964;42.606;23.588;2022-07-23T00:07:41;5.83;;;5.10;;
1925;SDS011;964;42.606;23.588;2022-07-23T00:10:08;9.57;;;5.07;;
1925;SDS011;964;42.606;23.588;2022-07-23T00:12:36;6.67;;;5.40;;
1925;SDS011;964;42.606;23.588;2022-07-23T00:15:04;5.00;;;4.50;;
1925;SDS011;964;42.606;23.588;2022-07-23T00:17:32;6.00;;;5.40;;
1925;SDS011;964;42.606;23.588;2022-07-23T00:20:00;6.97;;;5.50;;
1925;SDS011;964;42.606;23.588;2022-07-23T00:22:27;6.90;;;5.93;;
1925;SDS011;964;42.606;23.588;2022-07-23T00:24:54;6.77;;;5.30;;
1925;SDS011;964;42.606;23.588;2022-07-23T00:27:21;7.03;;;5.93;;
1925;SDS011;964;42.606;23.588;2022-07-23T00:29:48;5.47;;;4.90;;
1925;SDS011;964;42.606;23.588;2022-07-23T00:32:14;7.33;;;5.57;;
1925;SDS011;964;42.606;23.588;2022-07-23T00:34:42;5.77;;;5.13;;
1925;SDS011;964;42.606;23.588;2022-07-23T00:37:10;9.13;;;5.37;;
1925;SDS011;964;42.606;23.588;2022-07-23T00:39:37;9.50;;;5.07;;
1925;SDS011;964;42.606;23.588;2022-07-23T00:42:04;15.20;;;5.77;;
1925;SDS011;964;42.606;23.588;2022-07-23T00:44:30;6.23;;;5.00;;
1925;SDS011;964;42.606;23.588;2022-07-23T00:46:58;6.80;;;5.33;;
1925;SDS011;964;42.606;23.588;2022-07-23T00:49:26;10.07;;;5.33;;
1925;SDS011;964;42.606;23.588;2022-07-23T00:51:54;9.40;;;5.80;;
1925;SDS011;964;42.606;23.588;2022-07-23T00:54:23;7.50;;;5.70;;
1925;SDS011;964;42.606;23.588;2022-07-23T00:56:51;5.43;;;4.80;;
1925;SDS011;964;42.606;23.588;2022-07-23T00:59:18;6.60;;;5.37;;
1925;SDS011;964;42.606;23.588;2022-07-23T01:01:45;7.53;;;5.23;;
1925;SDS011;964;42.606;23.588;2022-07-23T01:04:14;13.53;;;5.70;;
1925;SDS011;964;42.606;23.588;2022-07-23T01:06:40;24.00;;;6.77;;
1925;SDS011;964;42.606;23.588;2022-07-23T01:09:08;23.50;;;7.30;;
1925;SDS011;964;42.606;23.588;2022-07-23T01:11:37;29.47;;;7.37;;
1925;SDS011;964;42.606;23.588;2022-07-23T01:14:07;26.13;;;7.67;;
1925;SDS011;964;42.606;23.588;2022-07-23T01:16:35;10.80;;;6.40;;
1925;SDS011;964;42.606;23.588;2022-07-23T01:19:02;10.40;;;5.93;;
1925;SDS011;964;42.606;23.588;2022-07-23T01:21:31;5.97;;;5.37;;
1925;SDS011;964;42.606;23.588;2022-07-23T01:24:03;6.30;;;5.43;;
1925;SDS011;964;42.606;23.588;2022-07-23T01:26:31;16.87;;;5.70;;
1925;SDS011;964;42.606;23.588;2022-07-23T01:28:58;11.17;;;5.90;;
1925;SDS011;964;42.606;23.588;2022-07-23T01:31:25;8.03;;;6.00;;
1925;SDS011;964;42.606;23.588;2022-07-23T01:33:51;8.57;;;6.03;;
1925;SDS011;964;42.606;23.588;2022-07-23T01:36:18;8.63;;;5.87;;
1925;SDS011;964;42.606;23.588;2022-07-23T01:38:45;9.17;;;5.80;;
1925;SDS011;964;42.606;23.588;2022-07-23T01:41:14;6.90;;;5.30;;
1925;SDS011;964;42.606;23.588;2022-07-23T01:43:40;7.17;;;6.57;;
1925;SDS011;964;42.606;23.588;2022-07-23T01:46:07;7.27;;;5.63;;
1925;SDS011;964;42.606;23.588;2022-07-23T01:48:34;8.80;;;5.50;;
1925;SDS011;964;42.606;23.588;2022-07-23T01:51:01;6.87;;;5.47;;
1925;SDS011;964;42.606;23.588;2022-07-23T01:53:27;8.30;;;6.00;;
1925;SDS011;964;42.606;23.588;2022-07-23T01:55:56;6.77;;;6.03;;
1925;SDS011;964;42.606;23.588;2022-07-23T01:58:24;8.30;;;5.97;;
1925;SDS011;964;42.606;23.588;2022-07-23T02:00:51;7.20;;;5.60;;
1925;SDS011;964;42.606;23.588;2022-07-23T02:03:19;8.93;;;5.93;;
1925;SDS011;964;42.606;23.588;2022-07-23T02:05:46;9.17;;;5.73;;
1925;SDS011;964;42.606;23.588;2022-07-23T02:08:13;8.53;;;6.47;;
1925;SDS011;964;42.606;23.588;2022-07-23T02:10:40;7.10;;;6.10;;
1925;SDS011;964;42.606;23.588;2022-07-23T02:13:07;7.23;;;5.90;;
1925;SDS011;964;42.606;23.588;2022-07-23T02:15:35;9.10;;;6.60;;
1925;SDS011;964;42.606;23.588;2022-07-23T02:18:02;7.47;;;6.07;;
1925;SDS011;964;42.606;23.588;2022-07-23T02:20:29;7.40;;;5.80;;
1925;SDS011;964;42.606;23.588;2022-07-23T02:22:55;9.60;;;6.13;;
1925;SDS011;964;42.606;23.588;2022-07-23T02:25:22;7.87;;;6.30;;
1925;SDS011;964;42.606;23.588;2022-07-23T02:27:49;8.13;;;6.40;;
1925;SDS011;964;42.606;23.588;2022-07-23T02:30:15;7.70;;;5.80;;
1925;SDS011;964;42.606;23.588;2022-07-23T02:32:43;6.93;;;5.70;;
1925;SDS011;964;42.606;23.588;2022-07-23T02:35:10;7.60;;;5.50;;
1925;SDS011;964;42.606;23.588;2022-07-23T02:37:37;8.17;;;6.57;;
1925;SDS011;964;42.606;23.588;2022-07-23T02:40:04;7.50;;;5.83;;
1925;SDS011;964;42.606;23.588;2022-07-23T02:42:31;9.30;;;6.13;;
1925;SDS011;964;42.606;23.588;2022-07-23T02:44:58;6.93;;;5.50;;
1925;SDS011;964;42.606;23.588;2022-07-23T02:47:25;7.57;;;6.33;;
1925;SDS011;964;42.606;23.588;2022-07-23T02:49:53;8.77;;;5.70;;
1925;SDS011;964;42.606;23.588;2022-07-23T02:52:21;10.30;;;6.30;;
1925;SDS011;964;42.606;23.588;2022-07-23T02:54:47;7.90;;;6.33;;
1925;SDS011;964;42.606;23.588;2022-07-23T02:57:14;6.17;;;5.37;;
1925;SDS011;964;42.606;23.588;2022-07-23T02:59:41;6.80;;;5.90;;
1925;SDS011;964;42.606;23.588;2022-07-23T03:02:07;7.70;;;5.97;;
1925;SDS011;964;42.606;23.588;2022-07-23T03:04:34;7.80;;;5.80;;
1925;SDS011;964;42.606;23.588;2022-07-23T03:07:02;8.13;;;5.87;;
1925;SDS011;964;42.606;23.588;2022-07-23T03:09:29;6.93;;;5.10;;
1925;SDS011;964;42.606;23.588;2022-07-23T03:11:56;8.50;;;6.33;;
1925;SDS011;964;42.606;23.588;2022-07-23T03:14:23;7.73;;;6.10;;
1925;SDS011;964;42.606;23.588;2022-07-23T03:16:49;10.03;;;5.73;;
1925;SDS011;964;42.606;23.588;2022-07-23T03:19:16;8.90;;;6.13;;
1925;SDS011;964;42.606;23.588;2022-07-23T03:21:43;13.70;;;7.13;;
1925;SDS011;964;42.606;23.588;2022-07-23T03:24:11;10.07;;;5.90;;
1925;SDS011;964;42.606;23.588;2022-07-23T03:26:38;8.37;;;5.50;;
1925;SDS011;964;42.606;23.588;2022-07-23T03:29:04;8.47;;;6.37;;
1925;SDS011;964;42.606;23.588;2022-07-23T03:31:31;8.60;;;6.27;;
1925;SDS011;964;42.606;23.588;2022-07-23T03:33:58;9.10;;;6.67;;
1925;SDS011;964;42.606;23.588;2022-07-23T03:36:25;7.70;;;6.73;;
1925;SDS011;964;42.606;23.588;2022-07-23T03:38:52;9.77;;;6.40;;
1925;SDS011;964;42.606;23.588;2022-07-23T03:41:20;13.67;;;6.07;;
1925;SDS011;964;42.606;23.588;2022-07-23T03:43:47;14.93;;;6.80;;
1925;SDS011;964;42.606;23.588;2022-07-23T03:46:14;9.60;;;7.07;;
1925;SDS011;964;42.606;23.588;2022-07-23T03:48:40;10.57;;;6.17;;
1925;SDS011;964;42.606;23.588;2022-07-23T03:51:07;8.17;;;6.60;;
1925;SDS011;964;42.606;23.588;2022-07-23T03:53:34;12.70;;;6.50;;
1925;SDS011;964;42.606;23.588;2022-07-23T03:56:00;12.90;;;6.77;;
1925;SDS011;964;42.606;23.588;2022-07-23T03:58:29;15.80;;;7.60;;
1925;SDS011;964;42.606;23.588;2022-07-23T04:00:55;11.33;;;7.27;;
1925;SDS011;964;42.606;23.588;2022-07-23T04:03:22;13.90;;;6.90;;
1925;SDS011;964;42.606;23.588;2022-07-23T04:05:49;14.43;;;7.40;;
1925;SDS011;964;42.606;23.588;2022-07-23T04:08:15;8.20;;;6.90;;
1925;SDS011;964;42.606;23.588;2022-07-23T04:10:42;17.37;;;7.30;;
1925;SDS011;964;42.606;23.588;2022-07-23T04:13:09;10.60;;;6.77;;
1925;SDS011;964;42.606;23.588;2022-07-23T04:15:38;9.23;;;6.63;;
1925;SDS011;964;42.606;23.588;2022-07-23T04:18:05;10.13;;;6.73;;
1925;SDS011;964;42.606;23.588;2022-07-23T04:20:33;7.30;;;6.57;;
1925;SDS011;964;42.606;23.588;2022-07-23T04:22:59;7.67;;;6.73;;
1925;SDS011;964;42.606;23.588;2022-07-23T04:25:26;12.20;;;6.90;;
1925;SDS011;964;42.606;23.588;2022-07-23T04:27:53;11.87;;;6.77;;
1925;SDS011;964;42.606;23.588;2022-07-23T04:30:19;8.97;;;7.10;;
1925;SDS011;964;42.606;23.588;2022-07-23T04:32:48;9.83;;;6.60;;
1925;SDS011;964;42.606;23.588;2022-07-23T04:35:14;7.27;;;6.50;;
1925;SDS011;964;42.606;23.588;2022-07-23T04:37:41;7.50;;;5.30;;
1925;SDS011;964;42.606;23.588;2022-07-23T04:40:08;7.13;;;6.17;;
1925;SDS011;964;42.606;23.588;2022-07-23T04:42:36;10.97;;;6.53;;
1925;SDS011;964;42.606;23.588;2022-07-23T04:45:03;7.37;;;5.90;;
1925;SDS011;964;42.606;23.588;2022-07-23T04:47:30;7.70;;;6.00;;
1925;SDS011;964;42.606;23.588;2022-07-23T04:49:59;8.40;;;6.33;;
1925;SDS011;964;42.606;23.588;2022-07-23T04:52:26;9.73;;;7.13;;
1925;SDS011;964;42.606;23.588;2022-07-23T04:54:52;7.50;;;6.80;;
1925;SDS011;964;42.606;23.588;2022-07-23T04:57:19;8.47;;;6.97;;
1925;SDS011;964;42.606;23.588;2022-07-23T04:59:46;7.30;;;6.50;;
1925;SDS011;964;42.606;23.588;2022-07-23T05:02:12;9.53;;;7.50;;
1925;SDS011;964;42.606;23.588;2022-07-23T05:04:39;9.90;;;6.80;;
1925;SDS011;964;42.606;23.588;2022-07-23T05:07:07;7.43;;;6.27;;
1925;SDS011;964;42.606;23.588;2022-07-23T05:09:34;8.90;;;6.57;;
1925;SDS011;964;42.606;23.588;2022-07-23T05:12:01;6.37;;;5.77;;
1925;SDS011;964;42.606;23.588;2022-07-23T05:14:27;7.80;;;6.37;;
1925;SDS011;964;42.606;23.588;2022-07-23T05:16:54;7.03;;;6.00;;
1925;SDS011;964;42.606;23.588;2022-07-23T05:19:21;8.30;;;6.00;;
1925;SDS011;964;42.606;23.588;2022-07-23T05:21:48;8.20;;;6.37;;
1925;SDS011;964;42.606;23.588;2022-07-23T05:24:16;6.90;;;6.20;;
1925;SDS011;964;42.606;23.588;2022-07-23T05:26:43;7.60;;;6.33;;
1925;SDS011;964;42.606;23.588;2022-07-23T05:29:09;7.30;;;5.80;;
1925;SDS011;964;42.606;23.588;2022-07-23T05:31:36;6.40;;;5.57;;
1925;SDS011;964;42.606;23.588;2022-07-23T05:34:03;9.03;;;7.63;;
1925;SDS011;964;42.606;23.588;2022-07-23T05:36:30;9.03;;;6.97;;
1925;SDS011;964;42.606;23.588;2022-07-23T05:38:57;7.23;;;6.53;;
1925;SDS011;964;42.606;23.588;2022-07-23T05:41:26;9.80;;;6.27;;
1925;SDS011;964;42.606;23.588;2022-07-23T05:43:53;7.73;;;6.13;;
1925;SDS011;964;42.606;23.588;2022-07-23T05:46:21;8.73;;;6.70;;
1925;SDS011;964;42.606;23.588;2022-07-23T05:48:47;9.70;;;6.87;;
1925;SDS011;964;42.606;23.588;2022-07-23T05:51:18;7.40;;;6.70;;
1925;SDS011;964;42.606;23.588;2022-07-23T05:53:46;8.07;;;7.03;;
1925;SDS011;964;42.606;23.588;2022-07-23T05:56:12;11.10;;;6.90;;
1925;SDS011;964;42.606;23.588;2022-07-23T05:58:40;8.13;;;7.33;;
1925;SDS011;964;42.606;23.588;2022-07-23T06:01:07;9.63;;;6.53;;
1925;SDS011;964;42.606;23.588;2022-07-23T06:03:34;11.40;;;8.30;;
1925;SDS011;964;42.606;23.588;2022-07-23T06:06:01;7.17;;;6.47;;
1925;SDS011;964;42.606;23.588;2022-07-23T06:08:28;9.13;;;7.73;;
1925;SDS011;964;42.606;23.588;2022-07-23T06:10:55;8.87;;;7.77;;
1925;SDS011;964;42.606;23.588;2022-07-23T06:13:21;10.43;;;7.60;;
1925;SDS011;964;42.606;23.588;2022-07-23T06:15:50;9.77;;;7.50;;
1925;SDS011;964;42.606;23.588;2022-07-23T06:18:17;9.07;;;7.50;;
1925;SDS011;964;42.606;23.588;2022-07-23T06:20:43;8.53;;;7.20;;
1925;SDS011;964;42.606;23.588;2022-07-23T06:23:10;10.00;;;7.40;;
1925;SDS011;964;42.606;23.588;2022-07-23T06:25:37;6.67;;;6.00;;
1925;SDS011;964;42.606;23.588;2022-07-23T06:28:04;11.30;;;7.70;;
1925;SDS011;964;42.606;23.588;2022-07-23T06:30:31;9.73;;;7.67;;
1925;SDS011;964;42.606;23.588;2022-07-23T06:32:59;14.20;;;7.43;;
1925;SDS011;964;42.606;23.588;2022-07-23T06:35:26;9.97;;;7.77;;
1925;SDS011;964;42.606;23.588;2022-07-23T06:37:52;8.07;;;7.10;;
1925;SDS011;964;42.606;23.588;2022-07-23T06:40:19;10.93;;;6.57;;
1925;SDS011;964;42.606;23.588;2022-07-23T06:42:46;9.10;;;6.60;;
1925;SDS011;964;42.606;23.588;2022-07-23T06:45:12;11.67;;;7.50;;
1925;SDS011;964;42.606;23.588;2022-07-23T06:47:39;8.83;;;6.90;;
1925;SDS011;964;42.606;23.588;2022-07-23T06:50:08;9.47;;;7.60;;
1925;SDS011;964;42.606;23.588;2022-07-23T06:52:35;10.17;;;7.60;;
1925;SDS011;964;42.606;23.588;2022-07-23T06:55:02;8.67;;;7.30;;
1925;SDS011;964;42.606;23.588;2022-07-23T06:57:30;6.53;;;5.93;;
1925;SDS011;964;42.606;23.588;2022-07-23T06:59:56;9.87;;;7.67;;
1925;SDS011;964;42.606;23.588;2022-07-23T07:02:23;7.07;;;6.33;;
1925;SDS011;964;42.606;23.588;2022-07-23T07:04:50;7.40;;;6.37;;
1925;SDS011;964;42.606;23.588;2022-07-23T07:07:19;6.87;;;6.23;;
1925;SDS011;964;42.606;23.588;2022-07-23T07:09:46;13.43;;;6.73;;
1925;SDS011;964;42.606;23.588;2022-07-23T07:12:13;8.80;;;6.20;;
1925;SDS011;964;42.606;23.588;2022-07-23T07:14:39;7.67;;;6.40;;
1925;SDS011;964;42.606;23.588;2022-07-23T07:17:06;7.25;;;6.50;;
1925;SDS011;964;42.606;23.588;2022-07-23T07:19:33;7.80;;;6.67;;
1925;SDS011;964;42.606;23.588;2022-07-23T07:21:59;7.70;;;6.47;;
1925;SDS011;964;42.606;23.588;2022-07-23T07:24:27;10.93;;;6.20;;
1925;SDS011;964;42.606;23.588;2022-07-23T07:26:54;6.67;;;6.00;;
1925;SDS011;964;42.606;23.588;2022-07-23T07:29:21;6.70;;;6.00;;
1925;SDS011;964;42.606;23.588;2022-07-23T07:31:47;6.50;;;5.90;;
1925;SDS011;964;42.606;23.588;2022-07-23T07:34:14;8.13;;;6.30;;
1925;SDS011;964;42.606;23.588;2022-07-23T07:36:41;7.87;;;7.07;;
1925;SDS011;964;42.606;23.588;2022-07-23T07:39:08;12.60;;;7.97;;
1925;SDS011;964;42.606;23.588;2022-07-23T07:41:37;7.67;;;6.27;;
1925;SDS011;964;42.606;23.588;2022-07-23T07:44:04;7.73;;;6.13;;
1925;SDS011;964;42.606;23.588;2022-07-23T07:46:30;8.30;;;6.17;;
1925;SDS011;964;42.606;23.588;2022-07-23T07:48:57;6.83;;;6.13;;
1925;SDS011;964;42.606;23.588;2022-07-23T07:51:24;8.67;;;6.93;;
1925;SDS011;964;42.606;23.588;2022-07-23T07:53:52;8.73;;;6.90;;
1925;SDS011;964;42.606;23.588;2022-07-23T07:56:19;7.67;;;6.93;;
1925;SDS011;964;42.606;23.588;2022-07-23T07:58:47;6.40;;;5.80;;
1925;SDS011;964;42.606;23.588;2022-07-23T08:01:13;7.60;;;6.83;;
1925;SDS011;964;42.606;23.588;2022-07-23T08:03:40;8.87;;;6.27;;
1925;SDS011;964;42.606;23.588;2022-07-23T08:06:07;7.33;;;6.13;;
1925;SDS011;964;42.606;23.588;2022-07-23T08:08:33;7.10;;;5.80;;
1925;SDS011;964;42.606;23.588;2022-07-23T08:22:02;11.07;;;6.72;;
1925;SDS011;964;42.606;23.588;2022-07-23T08:24:29;7.65;;;5.95;;
1925;SDS011;964;42.606;23.588;2022-07-23T08:26:56;9.50;;;6.07;;
1925;SDS011;964;42.606;23.588;2022-07-23T08:29:22;11.88;;;7.07;;
1925;SDS011;964;42.606;23.588;2022-07-23T08:31:49;6.97;;;6.15;;
1925;SDS011;964;42.606;23.588;2022-07-23T08:34:15;9.75;;;6.30;;
1925;SDS011;964;42.606;23.588;2022-07-23T08:36:42;9.20;;;5.63;;
1925;SDS011;964;42.606;23.588;2022-07-23T08:39:11;6.57;;;6.07;;
1925;SDS011;964;42.606;23.588;2022-07-23T08:41:39;8.50;;;6.32;;
1925;SDS011;964;42.606;23.588;2022-07-23T08:44:07;8.30;;;6.30;;
1925;SDS011;964;42.606;23.588;2022-07-23T08:46:34;7.63;;;5.65;;
1925;SDS011;964;42.606;23.588;2022-07-23T08:49:02;7.45;;;5.40;;
1925;SDS011;964;42.606;23.588;2022-07-23T08:51:29;9.85;;;5.97;;
1925;SDS011;964;42.606;23.588;2022-07-23T08:53:56;8.07;;;5.07;;
1925;SDS011;964;42.606;23.588;2022-07-23T08:56:25;5.97;;;4.82;;
1925;SDS011;964;42.606;23.588;2022-07-23T08:58:53;6.00;;;4.72;;
1925;SDS011;964;42.606;23.588;2022-07-23T09:01:19;5.85;;;5.20;;
1925;SDS011;964;42.606;23.588;2022-07-23T09:03:46;10.15;;;5.32;;
1925;SDS011;964;42.606;23.588;2022-07-23T09:06:13;6.60;;;5.55;;
1925;SDS011;964;42.606;23.588;2022-07-23T09:08:40;8.80;;;5.50;;
1925;SDS011;964;42.606;23.588;2022-07-23T09:11:08;9.80;;;4.70;;
1925;SDS011;964;42.606;23.588;2022-07-23T09:13:38;6.30;;;5.10;;
1925;SDS011;964;42.606;23.588;2022-07-23T09:16:08;7.35;;;5.40;;
1925;SDS011;964;42.606;23.588;2022-07-23T09:18:38;6.55;;;5.75;;
1925;SDS011;964;42.606;23.588;2022-07-23T09:21:12;7.03;;;5.20;;
1925;SDS011;964;42.606;23.588;2022-07-23T09:23:42;4.80;;;4.40;;
1925;SDS011;964;42.606;23.588;2022-07-23T09:26:20;5.82;;;5.30;;
1925;SDS011;964;42.606;23.588;2022-07-23T09:28:54;6.75;;;5.07;;
1925;SDS011;964;42.606;23.588;2022-07-23T09:31:23;5.68;;;5.22;;
1925;SDS011;964;42.606;23.588;2022-07-23T09:33:51;6.22;;;5.55;;
1925;SDS011;964;42.606;23.588;2022-07-23T09:36:26;6.20;;;4.97;;
1925;SDS011;964;42.606;23.588;2022-07-23T09:38:54;6.18;;;5.22;;
1925;SDS011;964;42.606;23.588;2022-07-23T09:41:21;6.97;;;5.55;;
1925;SDS011;964;42.606;23.588;2022-07-23T09:43:55;5.68;;;5.18;;
1925;SDS011;964;42.606;23.588;2022-07-23T09:46:23;6.45;;;4.50;;
1925;SDS011;964;42.606;23.588;2022-07-23T09:48:51;5.05;;;4.63;;
1925;SDS011;964;42.606;23.588;2022-07-23T09:51:18;5.85;;;5.03;;
1925;SDS011;964;42.606;23.588;2022-07-23T09:53:49;4.88;;;4.47;;
1925;SDS011;964;42.606;23.588;2022-07-23T09:56:15;5.78;;;4.63;;
1925;SDS011;964;42.606;23.588;2022-07-23T09:58:45;4.60;;;4.20;;
1925;SDS011;964;42.606;23.588;2022-07-23T10:01:17;4.97;;;4.43;;
1925;SDS011;964;42.606;23.588;2022-07-23T10:03:46;7.70;;;5.22;;
1925;SDS011;964;42.606;23.588;2022-07-23T10:06:13;6.20;;;4.60;;
1925;SDS011;964;42.606;23.588;2022-07-23T10:08:40;4.30;;;3.90;;
1925;SDS011;964;42.606;23.588;2022-07-23T10:11:09;5.97;;;4.20;;
1925;SDS011;964;42.606;23.588;2022-07-23T10:13:38;5.70;;;4.63;;
1925;SDS011;964;42.606;23.588;2022-07-23T10:16:21;8.13;;;4.50;;
1925;SDS011;964;42.606;23.588;2022-07-23T10:18:48;5.70;;;4.25;;
1925;SDS011;964;42.606;23.588;2022-07-23T10:21:16;6.43;;;4.80;;
1925;SDS011;964;42.606;23.588;2022-07-23T10:23:51;5.63;;;5.13;;
1925;SDS011;964;42.606;23.588;2022-07-23T10:26:32;5.20;;;4.70;;
1925;SDS011;964;42.606;23.588;2022-07-23T10:29:09;6.75;;;5.00;;
1925;SDS011;964;42.606;23.588;2022-07-23T10:31:50;4.80;;;4.40;;
1925;SDS011;964;42.606;23.588;2022-07-23T10:34:27;5.15;;;4.65;;
1925;SDS011;964;42.606;23.588;2022-07-23T10:37:07;6.22;;;4.70;;
1925;SDS011;964;42.606;23.588;2022-07-23T10:39:42;7.18;;;4.70;;
1925;SDS011;964;42.606;23.588;2022-07-23T10:42:10;4.72;;;4.18;;
1925;SDS011;964;42.606;23.588;2022-07-23T10:44:38;6.45;;;4.53;;
1925;SDS011;964;42.606;23.588;2022-07-23T10:47:09;6.05;;;4.93;;
1925;SDS011;964;42.606;23.588;2022-07-23T10:49:46;5.38;;;4.78;;
1925;SDS011;964;42.606;23.588;2022-07-23T10:52:20;6.88;;;5.00;;
1925;SDS011;964;42.606;23.588;2022-07-23T10:54:51;5.88;;;4.60;;
1925;SDS011;964;42.606;23.588;2022-07-23T10:57:20;5.82;;;4.82;;
1925;SDS011;964;42.606;23.588;2022-07-23T11:02:44;5.53;;;5.03;;
1925;SDS011;964;42.606;23.588;2022-07-23T11:05:13;4.90;;;4.50;;
1925;SDS011;964;42.606;23.588;2022-07-23T11:10:51;6.03;;;5.53;;
1925;SDS011;964;42.606;23.588;2022-07-23T11:13:30;5.25;;;4.75;;
1925;SDS011;964;42.606;23.588;2022-07-23T11:19:00;5.60;;;5.00;;
1925;SDS011;964;42.606;23.588;2022-07-23T11:21:40;5.53;;;4.90;;
1925;SDS011;964;42.606;23.588;2022-07-23T11:24:12;4.75;;;4.10;;
1925;SDS011;964;42.606;23.588;2022-07-23T11:26:44;6.38;;;5.40;;
1925;SDS011;964;42.606;23.588;2022-07-23T11:32:17;8.27;;;4.43;;
1925;SDS011;964;42.606;23.588;2022-07-23T11:35:26;5.80;;;4.80;;
1925;SDS011;964;42.606;23.588;2022-07-23T11:38:02;7.95;;;4.82;;
1925;SDS011;964;42.606;23.588;2022-07-23T11:40:30;7.45;;;4.82;;
1925;SDS011;964;42.606;23.588;2022-07-23T11:42:58;4.95;;;4.43;;
1925;SDS011;964;42.606;23.588;2022-07-23T11:45:31;5.28;;;4.78;;
1925;SDS011;964;42.606;23.588;2022-07-23T11:47:59;8.82;;;4.22;;
1925;SDS011;964;42.606;23.588;2022-07-23T11:50:27;7.13;;;4.63;;
1925;SDS011;964;42.606;23.588;2022-07-23T11:52:54;5.38;;;3.70;;
1925;SDS011;964;42.606;23.588;2022-07-23T11:55:21;6.78;;;4.30;;
1925;SDS011;964;42.606;23.588;2022-07-23T11:57:48;7.32;;;4.22;;
1925;SDS011;964;42.606;23.588;2022-07-23T12:00:18;4.97;;;4.47;;
1925;SDS011;964;42.606;23.588;2022-07-23T12:02:47;6.75;;;4.60;;
1925;SDS011;964;42.606;23.588;2022-07-23T12:05:16;8.15;;;4.22;;
1925;SDS011;964;42.606;23.588;2022-07-23T12:07:46;5.93;;;4.28;;
1925;SDS011;964;42.606;23.588;2022-07-23T12:10:15;5.93;;;4.57;;
1925;SDS011;964;42.606;23.588;2022-07-23T12:12:44;7.53;;;5.07;;
1925;SDS011;964;42.606;23.588;2022-07-23T12:15:13;5.45;;;3.90;;
1925;SDS011;964;42.606;23.588;2022-07-23T12:17:41;6.00;;;4.50;;
1925;SDS011;964;42.606;23.588;2022-07-23T12:20:12;9.85;;;5.05;;
1925;SDS011;964;42.606;23.588;2022-07-23T12:22:41;6.07;;;4.32;;
1925;SDS011;964;42.606;23.588;2022-07-23T12:25:15;13.45;;;4.63;;
1925;SDS011;964;42.606;23.588;2022-07-23T12:27:43;7.97;;;4.57;;
1925;SDS011;964;42.606;23.588;2022-07-23T12:30:17;11.13;;;3.92;;
1925;SDS011;964;42.606;23.588;2022-07-23T12:32:48;8.32;;;3.83;;
1925;SDS011;964;42.606;23.588;2022-07-23T12:35:16;10.75;;;4.10;;
1925;SDS011;964;42.606;23.588;2022-07-23T12:37:43;11.27;;;4.65;;
1925;SDS011;964;42.606;23.588;2022-07-23T12:40:23;6.10;;;3.88;;
1925;SDS011;964;42.606;23.588;2022-07-23T12:42:54;6.32;;;3.80;;
1925;SDS011;964;42.606;23.588;2022-07-23T12:45:23;7.70;;;4.38;;
1925;SDS011;964;42.606;23.588;2022-07-23T12:48:02;7.65;;;4.25;;
1925;SDS011;964;42.606;23.588;2022-07-23T12:50:35;8.32;;;4.40;;
1925;SDS011;964;42.606;23.588;2022-07-23T12:53:05;9.77;;;4.80;;
1925;SDS011;964;42.606;23.588;2022-07-23T12:55:34;11.98;;;5.20;;
1925;SDS011;964;42.606;23.588;2022-07-23T12:58:05;5.53;;;4.38;;
1925;SDS011;964;42.606;23.588;2022-07-23T13:00:51;8.07;;;4.40;;
1925;SDS011;964;42.606;23.588;2022-07-23T13:03:24;7.40;;;4.70;;
1925;SDS011;964;42.606;23.588;2022-07-23T13:05:52;5.40;;;3.97;;
1925;SDS011;964;42.606;23.588;2022-07-23T13:08:18;9.20;;;4.30;;
1925;SDS011;964;42.606;23.588;2022-07-23T13:10:47;6.10;;;3.38;;
1925;SDS011;964;42.606;23.588;2022-07-23T13:13:16;11.27;;;3.72;;
1925;SDS011;964;42.606;23.588;2022-07-23T13:15:43;7.75;;;4.43;;
1925;SDS011;964;42.606;23.588;2022-07-23T13:18:10;6.28;;;4.10;;
1925;SDS011;964;42.606;23.588;2022-07-23T13:20:37;7.93;;;4.05;;
1925;SDS011;964;42.606;23.588;2022-07-23T13:23:04;14.10;;;4.55;;
1925;SDS011;964;42.606;23.588;2022-07-23T13:25:31;7.90;;;3.63;;
1925;SDS011;964;42.606;23.588;2022-07-23T13:28:00;7.43;;;4.45;;
1925;SDS011;964;42.606;23.588;2022-07-23T13:30:27;9.15;;;4.07;;
1925;SDS011;964;42.606;23.588;2022-07-23T13:32:54;9.90;;;4.13;;
1925;SDS011;964;42.606;23.588;2022-07-23T13:35:21;7.20;;;3.75;;
1925;SDS011;964;42.606;23.588;2022-07-23T13:37:48;7.13;;;3.67;;
1925;SDS011;964;42.606;23.588;2022-07-23T13:40:14;5.28;;;3.78;;
1925;SDS011;964;42.606;23.588;2022-07-23T13:42:41;8.73;;;4.28;;
1925;SDS011;964;42.606;23.588;2022-07-23T13:45:09;10.65;;;4.32;;
1925;SDS011;964;42.606;23.588;2022-07-23T13:47:36;7.18;;;4.00;;
1925;SDS011;964;42.606;23.588;2022-07-23T13:50:03;7.95;;;4.15;;
1925;SDS011;964;42.606;23.588;2022-07-23T13:52:31;5.88;;;4.32;;
1925;SDS011;964;42.606;23.588;2022-07-23T13:54:59;11.07;;;4.13;;
1925;SDS011;964;42.606;23.588;2022-07-23T13:57:26;6.38;;;4.70;;
1925;SDS011;964;42.606;23.588;2022-07-23T13:59:53;8.88;;;4.57;;
1925;SDS011;964;42.606;23.588;2022-07-23T14:02:21;8.95;;;3.67;;
1925;SDS011;964;42.606;23.588;2022-07-23T14:04:48;7.97;;;4.40;;
1925;SDS011;964;42.606;23.588;2022-07-23T14:07:15;10.43;;;4.70;;
1925;SDS011;964;42.606;23.588;2022-07-23T14:09:42;7.70;;;4.50;;
1925;SDS011;964;42.606;23.588;2022-07-23T14:12:09;4.18;;;3.60;;
1925;SDS011;964;42.606;23.588;2022-07-23T14:14:36;8.38;;;4.28;;
1925;SDS011;964;42.606;23.588;2022-07-23T14:17:03;5.78;;;3.78;;
1925;SDS011;964;42.606;23.588;2022-07-23T14:19:31;7.15;;;4.35;;
1925;SDS011;964;42.606;23.588;2022-07-23T14:21:58;7.35;;;4.68;;
1925;SDS011;964;42.606;23.588;2022-07-23T14:24:25;6.45;;;4.32;;
1925;SDS011;964;42.606;23.588;2022-07-23T14:26:51;5.65;;;4.85;;
1925;SDS011;964;42.606;23.588;2022-07-23T14:29:18;7.38;;;4.60;;
1925;SDS011;964;42.606;23.588;2022-07-23T14:31:45;10.35;;;5.85;;
1925;SDS011;964;42.606;23.588;2022-07-23T14:34:11;13.52;;;5.60;;
1925;SDS011;964;42.606;23.588;2022-07-23T14:36:40;6.28;;;5.38;;
1925;SDS011;964;42.606;23.588;2022-07-23T14:39:06;5.47;;;4.97;;
1925;SDS011;964;42.606;23.588;2022-07-23T14:41:34;4.80;;;4.30;;
1925;SDS011;964;42.606;23.588;2022-07-23T14:44:01;6.70;;;5.38;;
1925;SDS011;964;42.606;23.588;2022-07-23T14:46:29;7.93;;;5.00;;
1925;SDS011;964;42.606;23.588;2022-07-23T14:48:55;8.65;;;5.50;;
1925;SDS011;964;42.606;23.588;2022-07-23T14:51:22;6.82;;;5.13;;
1925;SDS011;964;42.606;23.588;2022-07-23T14:53:50;7.22;;;5.28;;
1925;SDS011;964;42.606;23.588;2022-07-23T14:56:17;8.77;;;4.97;;
1925;SDS011;964;42.606;23.588;2022-07-23T14:58:45;14.13;;;7.07;;
1925;SDS011;964;42.606;23.588;2022-07-23T15:01:11;10.80;;;5.53;;
1925;SDS011;964;42.606;23.588;2022-07-23T15:03:38;6.75;;;4.63;;
1925;SDS011;964;42.606;23.588;2022-07-23T15:06:06;5.65;;;4.65;;
1925;SDS011;964;42.606;23.588;2022-07-23T15:08:33;7.85;;;4.80;;
1925;SDS011;964;42.606;23.588;2022-07-23T15:11:02;6.78;;;4.72;;
1925;SDS011;964;42.606;23.588;2022-07-23T15:13:29;10.40;;;5.45;;
1925;SDS011;964;42.606;23.588;2022-07-23T15:15:56;7.25;;;4.55;;
1925;SDS011;964;42.606;23.588;2022-07-23T15:18:23;9.10;;;4.50;;
1925;SDS011;964;42.606;23.588;2022-07-23T15:20:49;12.15;;;5.07;;
1925;SDS011;964;42.606;23.588;2022-07-23T15:23:16;5.47;;;4.95;;
1925;SDS011;964;42.606;23.588;2022-07-23T15:25:43;5.53;;;4.45;;
1925;SDS011;964;42.606;23.588;2022-07-23T15:28:11;8.20;;;4.60;;
1925;SDS011;964;42.606;23.588;2022-07-23T15:30:38;8.00;;;4.50;;
1925;SDS011;964;42.606;23.588;2022-07-23T15:33:05;7.82;;;4.50;;
1925;SDS011;964;42.606;23.588;2022-07-23T15:35:32;6.13;;;4.07;;
1925;SDS011;964;42.606;23.588;2022-07-23T15:37:59;5.03;;;4.53;;
1925;SDS011;964;42.606;23.588;2022-07-23T15:40:26;9.48;;;5.10;;